sensor_id;sensor_type;location;lat;lon;timestamp;pressure;altitude;pressure_sealevel;temperature;humidity
62111;BME280;48102;47.526;19.072;2023-05-03T03:41:56;100728.56;;;12.53;100.00
62111;BME280;48102;47.526;19.072;2023-05-03T03:45:00;100728.63;;;12.52;100.00
62111;BME280;48102;47.526;19.072;2023-05-03T03:48:04;100737.25;;;12.55;100.00
62111;BME280;48102;47.526;19.072;2023-05-03T03:51:08;100745.91;;;12.59;100.00
62111;BME280;48102;47.526;19.072;2023-05-03T03:54:12;100747.44;;;12.63;100.00
62111;BME280;48102;47.526;19.072;2023-05-03T03:57:16;100740.47;;;12.62;100.00
62111;BME280;48102;47.526;19.072;2023-05-03T04:00:19;100743.72;;;12.67;100.00
62111;BME280;48102;47.526;19.072;2023-05-03T04:03:23;100743.72;;;12.67;100.00
62111;BME280;48102;47.526;19.072;2023-05-03T04:06:26;100747.91;;;12.71;100.00
62111;BME280;48102;47.526;19.072;2023-05-03T04:09:29;100747.66;;;12.76;100.00
62111;BME280;48102;47.526;19.072;2023-05-03T04:12:32;100753.56;;;12.81;100.00
62111;BME280;48102;47.526;19.072;2023-05-03T04:15:35;100764.16;;;12.81;100.00
62111;BME280;48102;47.526;19.072;2023-05-03T04:18:38;100758.09;;;12.79;100.00
62111;BME280;48102;47.526;19.072;2023-05-03T04:21:42;100752.56;;;12.84;100.00
62111;BME280;48102;47.526;19.072;2023-05-03T04:24:45;100762.75;;;12.91;100.00
62111;BME280;48102;47.526;19.072;2023-05-03T04:27:49;100764.12;;;12.98;100.00
62111;BME280;48102;47.526;19.072;2023-05-03T04:30:52;100765.81;;;12.99;100.00
62111;BME280;48102;47.526;19.072;2023-05-03T04:33:56;100773.28;;;13.09;100.00
62111;BME280;48102;47.526;19.072;2023-05-03T04:36:59;100762.72;;;13.09;100.00
62111;BME280;48102;47.526;19.072;2023-05-03T04:40:04;100765.87;;;13.15;100.00
62111;BME280;48102;47.526;19.072;2023-05-03T04:43:11;100775.94;;;13.09;100.00
62111;BME280;48102;47.526;19.072;2023-05-03T04:46:15;100767.31;;;13.05;100.00
62111;BME280;48102;47.526;19.072;2023-05-03T04:49:19;100780.97;;;13.13;100.00
62111;BME280;48102;47.526;19.072;2023-05-03T04:52:22;100780.41;;;13.24;100.00
62111;BME280;48102;47.526;19.072;2023-05-03T04:55:28;100784.94;;;13.22;100.00
62111;BME280;48102;47.526;19.072;2023-05-03T04:58:32;100784.78;;;13.25;100.00
62111;BME280;48102;47.526;19.072;2023-05-03T05:01:34;100792.16;;;13.36;100.00
62111;BME280;48102;47.526;19.072;2023-05-03T05:04:38;100797.03;;;13.43;100.00
62111;BME280;48102;47.526;19.072;2023-05-03T05:07:42;100788.91;;;13.46;100.00
62111;BME280;48102;47.526;19.072;2023-05-03T05:10:45;100797.47;;;13.51;100.00
62111;BME280;48102;47.526;19.072;2023-05-03T05:13:48;100806.50;;;13.63;100.00
62111;BME280;48102;47.526;19.072;2023-05-03T05:16:52;100801.16;;;13.65;100.00
62111;BME280;48102;47.526;19.072;2023-05-03T05:19:55;100795.50;;;13.71;100.00
62111;BME280;48102;47.526;19.072;2023-05-03T05:22:58;100800.13;;;13.67;100.00
62111;BME280;48102;47.526;19.072;2023-05-03T05:26:02;100799.53;;;13.78;100.00
62111;BME280;48102;47.526;19.072;2023-05-03T05:29:06;100800.28;;;13.96;100.00
62111;BME280;48102;47.526;19.072;2023-05-03T05:32:09;100793.84;;;14.16;100.00
62111;BME280;48102;47.526;19.072;2023-05-03T05:35:12;100794.41;;;14.37;100.00
62111;BME280;48102;47.526;19.072;2023-05-03T05:38:19;100791.88;;;14.65;100.00
62111;BME280;48102;47.526;19.072;2023-05-03T05:41:23;100799.16;;;14.62;100.00
62111;BME280;48102;47.526;19.072;2023-05-03T05:44:26;100802.03;;;14.73;100.00
62111;BME280;48102;47.526;19.072;2023-05-03T05:47:29;100802.63;;;14.92;100.00
62111;BME280;48102;47.526;19.072;2023-05-03T05:50:33;100811.72;;;15.02;100.00
62111;BME280;48102;47.526;19.072;2023-05-03T05:53:37;100807.97;;;15.21;100.00
62111;BME280;48102;47.526;19.072;2023-05-03T05:56:41;100808.84;;;15.63;100.00
62111;BME280;48102;47.526;19.072;2023-05-03T05:59:44;100814.62;;;15.98;100.00
62111;BME280;48102;47.526;19.072;2023-05-03T06:02:47;100819.63;;;16.29;100.00
62111;BME280;48102;47.526;19.072;2023-05-03T06:05:51;100837.00;;;16.35;100.00
62111;BME280;48102;47.526;19.072;2023-05-03T06:08:54;100838.38;;;16.28;100.00
62111;BME280;48102;47.526;19.072;2023-05-03T06:11:57;100847.63;;;16.35;100.00
62111;BME280;48102;47.526;19.072;2023-05-03T06:15:03;100856.03;;;16.29;100.00
62111;BME280;48102;47.526;19.072;2023-05-03T06:18:07;100863.09;;;16.01;100.00
62111;BME280;48102;47.526;19.072;2023-05-03T06:21:11;100859.31;;;16.05;100.00
62111;BME280;48102;47.526;19.072;2023-05-03T06:24:15;100851.91;;;16.11;100.00
62111;BME280;48102;47.526;19.072;2023-05-03T06:27:23;100859.38;;;16.18;100.00
62111;BME280;48102;47.526;19.072;2023-05-03T06:30:27;100856.50;;;16.21;100.00
62111;BME280;48102;47.526;19.072;2023-05-03T06:33:31;100870.34;;;16.26;100.00
62111;BME280;48102;47.526;19.072;2023-05-03T06:36:34;100881.72;;;16.43;100.00
62111;BME280;48102;47.526;19.072;2023-05-03T06:39:37;100876.38;;;16.70;100.00
62111;BME280;48102;47.526;19.072;2023-05-03T06:42:40;100880.16;;;16.80;100.00
62111;BME280;48102;47.526;19.072;2023-05-03T06:45:43;100883.81;;;17.17;100.00
62111;BME280;48102;47.526;19.072;2023-05-03T06:48:46;100888.63;;;17.50;100.00
62111;BME280;48102;47.526;19.072;2023-05-03T06:51:48;100885.84;;;17.77;100.00
62111;BME280;48102;47.526;19.072;2023-05-03T06:54:52;100885.88;;;18.14;100.00
62111;BME280;48102;47.526;19.072;2023-05-03T06:57:55;100889.81;;;18.45;100.00
62111;BME280;48102;47.526;19.072;2023-05-03T07:00:57;100895.78;;;18.49;100.00
62111;BME280;48102;47.526;19.072;2023-05-03T07:04:00;100889.59;;;18.48;100.00
62111;BME280;48102;47.526;19.072;2023-05-03T07:07:03;100880.28;;;18.78;100.00
62111;BME280;48102;47.526;19.072;2023-05-03T07:10:06;100885.91;;;19.55;100.00
62111;BME280;48102;47.526;19.072;2023-05-03T07:13:10;100870.06;;;20.30;100.00
62111;BME280;48102;47.526;19.072;2023-05-03T07:16:12;100877.16;;;21.05;100.00
62111;BME280;48102;47.526;19.072;2023-05-03T07:19:15;100879.47;;;21.62;100.00
62111;BME280;48102;47.526;19.072;2023-05-03T07:22:18;100881.25;;;22.13;96.53
62111;BME280;48102;47.526;19.072;2023-05-03T07:25:26;100883.03;;;22.02;83.99
62111;BME280;48102;47.526;19.072;2023-05-03T07:28:29;100876.00;;;22.11;78.49
62111;BME280;48102;47.526;19.072;2023-05-03T07:31:33;100878.59;;;21.92;87.24
62111;BME280;48102;47.526;19.072;2023-05-03T07:34:36;100881.09;;;22.14;86.66
62111;BME280;48102;47.526;19.072;2023-05-03T07:37:39;100889.94;;;21.95;83.61
62111;BME280;48102;47.526;19.072;2023-05-03T07:40:41;100885.91;;;21.49;81.48
62111;BME280;48102;47.526;19.072;2023-05-03T07:43:47;100889.28;;;21.00;84.45
62111;BME280;48102;47.526;19.072;2023-05-03T07:46:49;100891.31;;;21.08;93.67
62111;BME280;48102;47.526;19.072;2023-05-03T07:49:53;100900.50;;;21.15;87.20
62111;BME280;48102;47.526;19.072;2023-05-03T07:52:56;100895.72;;;21.18;93.87
62111;BME280;48102;47.526;19.072;2023-05-03T07:56:00;100901.28;;;21.05;90.43
62111;BME280;48102;47.526;19.072;2023-05-03T07:59:02;100895.47;;;21.21;88.23
62111;BME280;48102;47.526;19.072;2023-05-03T08:02:12;100893.06;;;21.39;86.17
62111;BME280;48102;47.526;19.072;2023-05-03T08:05:15;100908.22;;;21.50;81.11
62111;BME280;48102;47.526;19.072;2023-05-03T08:08:19;100896.94;;;21.46;86.22
62111;BME280;48102;47.526;19.072;2023-05-03T08:11:22;100898.37;;;21.50;88.25
62111;BME280;48102;47.526;19.072;2023-05-03T08:14:25;100896.84;;;21.37;87.25
62111;BME280;48102;47.526;19.072;2023-05-03T08:17:29;100906.66;;;21.26;89.82
62111;BME280;48102;47.526;19.072;2023-05-03T08:20:32;100907.03;;;21.01;90.30
62111;BME280;48102;47.526;19.072;2023-05-03T08:23:38;100902.91;;;20.97;91.55
62111;BME280;48102;47.526;19.072;2023-05-03T08:26:40;100910.94;;;20.97;96.75
62111;BME280;48102;47.526;19.072;2023-05-03T08:29:44;100907.28;;;20.77;95.46
62111;BME280;48102;47.526;19.072;2023-05-03T08:32:47;100905.88;;;20.62;96.50
62111;BME280;48102;47.526;19.072;2023-05-03T08:35:50;100907.38;;;20.43;99.38
62111;BME280;48102;47.526;19.072;2023-05-03T08:38:54;100909.81;;;20.35;100.00
62111;BME280;48102;47.526;19.072;2023-05-03T08:41:57;100919.66;;;20.57;100.00
62111;BME280;48102;47.526;19.072;2023-05-03T08:44:59;100912.59;;;20.45;100.00
62111;BME280;48102;47.526;19.072;2023-05-03T08:48:03;100916.75;;;20.81;100.00
62111;BME280;48102;47.526;19.072;2023-05-03T08:51:07;100916.00;;;21.32;96.63
62111;BME280;48102;47.526;19.072;2023-05-03T08:54:13;100918.00;;;21.91;83.01
62111;BME280;48102;47.526;19.072;2023-05-03T08:57:17;100921.16;;;22.46;79.16
62111;BME280;48102;47.526;19.072;2023-05-03T09:00:26;100911.16;;;22.97;83.38
62111;BME280;48102;47.526;19.072;2023-05-03T09:03:30;100920.47;;;23.32;82.07
62111;BME280;48102;47.526;19.072;2023-05-03T09:06:34;100916.38;;;23.74;73.29
62111;BME280;48102;47.526;19.072;2023-05-03T09:09:38;100918.16;;;24.21;71.91
62111;BME280;48102;47.526;19.072;2023-05-03T09:12:41;100918.69;;;24.52;69.95
62111;BME280;48102;47.526;19.072;2023-05-03T09:15:54;100920.75;;;24.13;68.00
62111;BME280;48102;47.526;19.072;2023-05-03T09:19:04;100915.47;;;23.93;70.54
62111;BME280;48102;47.526;19.072;2023-05-03T09:22:10;100917.88;;;24.24;69.84
62111;BME280;48102;47.526;19.072;2023-05-03T09:25:13;100913.84;;;24.56;65.95
62111;BME280;48102;47.526;19.072;2023-05-03T09:28:18;100917.38;;;24.11;59.58
62111;BME280;48102;47.526;19.072;2023-05-03T09:31:22;100916.88;;;23.97;62.65
62111;BME280;48102;47.526;19.072;2023-05-03T09:34:25;100910.59;;;23.69;60.49
62111;BME280;48102;47.526;19.072;2023-05-03T09:37:35;100910.50;;;23.98;65.99
62111;BME280;48102;47.526;19.072;2023-05-03T09:40:47;100913.88;;;24.28;64.43
62111;BME280;48102;47.526;19.072;2023-05-03T09:43:51;100913.69;;;24.93;61.22
62111;BME280;48102;47.526;19.072;2023-05-03T09:47:04;100917.47;;;24.82;59.05
62111;BME280;48102;47.526;19.072;2023-05-03T09:50:07;100906.31;;;24.77;64.26
62111;BME280;48102;47.526;19.072;2023-05-03T09:53:10;100905.78;;;25.09;61.48
62111;BME280;48102;47.526;19.072;2023-05-03T09:56:14;100907.72;;;25.25;60.89
62111;BME280;48102;47.526;19.072;2023-05-03T09:59:18;100911.69;;;25.13;58.11
62111;BME280;48102;47.526;19.072;2023-05-03T10:02:23;100910.00;;;24.94;60.33
62111;BME280;48102;47.526;19.072;2023-05-03T10:05:27;100911.78;;;24.67;63.06
62111;BME280;48102;47.526;19.072;2023-05-03T10:08:40;100908.53;;;24.46;61.48
62111;BME280;48102;47.526;19.072;2023-05-03T10:11:47;100906.16;;;24.61;61.99
62111;BME280;48102;47.526;19.072;2023-05-03T10:14:52;100902.44;;;25.15;64.33
62111;BME280;48102;47.526;19.072;2023-05-03T10:17:58;100904.97;;;24.99;59.70
62111;BME280;48102;47.526;19.072;2023-05-03T10:21:08;100908.41;;;24.83;59.51
62111;BME280;48102;47.526;19.072;2023-05-03T10:24:15;100909.91;;;25.03;60.38
62111;BME280;48102;47.526;19.072;2023-05-03T10:27:20;100903.38;;;24.88;63.57
62111;BME280;48102;47.526;19.072;2023-05-03T10:30:29;100903.84;;;25.01;58.07
62111;BME280;48102;47.526;19.072;2023-05-03T10:33:36;100903.66;;;25.21;58.91
62111;BME280;48102;47.526;19.072;2023-05-03T10:36:41;100898.53;;;25.36;59.00
62111;BME280;48102;47.526;19.072;2023-05-03T10:39:52;100895.84;;;25.36;58.40
62111;BME280;48102;47.526;19.072;2023-05-03T10:42:55;100898.66;;;25.08;54.99
62111;BME280;48102;47.526;19.072;2023-05-03T10:49:15;100900.63;;;24.80;59.63
62111;BME280;48102;47.526;19.072;2023-05-03T10:55:59;100885.13;;;24.46;59.49
62111;BME280;48102;47.526;19.072;2023-05-03T10:59:03;100896.53;;;24.31;58.33
62111;BME280;48102;47.526;19.072;2023-05-03T11:02:07;100895.47;;;23.96;56.94
62111;BME280;48102;47.526;19.072;2023-05-03T11:05:13;100887.69;;;23.65;61.04
62111;BME280;48102;47.526;19.072;2023-05-03T11:08:21;100885.91;;;23.37;61.58
62111;BME280;48102;47.526;19.072;2023-05-03T11:11:24;100880.22;;;23.49;64.58
62111;BME280;48102;47.526;19.072;2023-05-03T11:14:27;100889.75;;;23.81;60.88
62111;BME280;48102;47.526;19.072;2023-05-03T11:17:29;100892.16;;;23.84;60.46
62111;BME280;48102;47.526;19.072;2023-05-03T11:20:33;100898.75;;;24.17;58.53
62111;BME280;48102;47.526;19.072;2023-05-03T11:23:38;100883.75;;;24.42;59.21
62111;BME280;48102;47.526;19.072;2023-05-03T11:26:41;100882.34;;;24.38;58.45
62111;BME280;48102;47.526;19.072;2023-05-03T11:29:47;100889.38;;;24.21;57.10
62111;BME280;48102;47.526;19.072;2023-05-03T11:32:51;100892.84;;;24.14;60.46
62111;BME280;48102;47.526;19.072;2023-05-03T11:35:54;100892.28;;;24.10;61.52
62111;BME280;48102;47.526;19.072;2023-05-03T11:38:58;100883.06;;;24.13;62.07
62111;BME280;48102;47.526;19.072;2023-05-03T11:42:02;100886.47;;;24.33;60.41
62111;BME280;48102;47.526;19.072;2023-05-03T11:45:06;100885.84;;;24.21;58.00
62111;BME280;48102;47.526;19.072;2023-05-03T11:48:11;100880.94;;;23.89;60.73
62111;BME280;48102;47.526;19.072;2023-05-03T11:51:16;100873.53;;;23.91;62.83
62111;BME280;48102;47.526;19.072;2023-05-03T11:54:23;100874.34;;;23.64;62.15
62111;BME280;48102;47.526;19.072;2023-05-03T11:57:30;100877.69;;;23.38;64.84
62111;BME280;48102;47.526;19.072;2023-05-03T12:00:35;100876.16;;;23.26;65.92
62111;BME280;48102;47.526;19.072;2023-05-03T12:03:38;100874.69;;;22.94;67.93
62111;BME280;48102;47.526;19.072;2023-05-03T12:06:41;100875.94;;;22.81;69.03
62111;BME280;48102;47.526;19.072;2023-05-03T12:09:46;100875.50;;;22.85;67.64
62111;BME280;48102;47.526;19.072;2023-05-03T12:13:10;100883.28;;;22.78;69.56
62111;BME280;48102;47.526;19.072;2023-05-03T12:16:17;100874.78;;;22.83;68.47
62111;BME280;48102;47.526;19.072;2023-05-03T12:19:27;100870.31;;;22.93;66.52
62111;BME280;48102;47.526;19.072;2023-05-03T12:22:34;100874.25;;;22.99;64.44
62111;BME280;48102;47.526;19.072;2023-05-03T12:25:37;100873.09;;;22.34;67.26
62111;BME280;48102;47.526;19.072;2023-05-03T12:28:48;100874.37;;;22.49;73.89
62111;BME280;48102;47.526;19.072;2023-05-03T12:31:51;100864.22;;;22.72;69.57
62111;BME280;48102;47.526;19.072;2023-05-03T12:34:56;100863.91;;;22.85;65.51
62111;BME280;48102;47.526;19.072;2023-05-03T12:38:05;100852.28;;;23.13;64.86
62111;BME280;48102;47.526;19.072;2023-05-03T12:41:11;100860.87;;;23.36;66.90
62111;BME280;48102;47.526;19.072;2023-05-03T12:44:24;100858.44;;;23.43;63.24
62111;BME280;48102;47.526;19.072;2023-05-03T12:47:30;100852.66;;;23.38;61.31
62111;BME280;48102;47.526;19.072;2023-05-03T12:50:38;100853.78;;;23.35;64.08
62111;BME280;48102;47.526;19.072;2023-05-03T12:53:45;100847.22;;;23.47;63.46
62111;BME280;48102;47.526;19.072;2023-05-03T12:56:49;100845.50;;;23.19;62.08
62111;BME280;48102;47.526;19.072;2023-05-03T12:59:56;100842.44;;;22.46;64.59
62111;BME280;48102;47.526;19.072;2023-05-03T13:03:05;100839.16;;;22.23;69.52
62111;BME280;48102;47.526;19.072;2023-05-03T13:06:11;100838.50;;;21.90;72.76
62111;BME280;48102;47.526;19.072;2023-05-03T13:09:17;100838.16;;;21.64;70.73
62111;BME280;48102;47.526;19.072;2023-05-03T13:12:26;100838.50;;;21.50;80.77
62111;BME280;48102;47.526;19.072;2023-05-03T13:15:30;100837.63;;;21.40;89.46
62111;BME280;48102;47.526;19.072;2023-05-03T13:18:34;100845.00;;;21.26;94.06
62111;BME280;48102;47.526;19.072;2023-05-03T13:21:37;100842.31;;;21.05;96.49
62111;BME280;48102;47.526;19.072;2023-05-03T13:24:44;100844.75;;;21.09;100.00
62111;BME280;48102;47.526;19.072;2023-05-03T13:27:47;100842.59;;;21.02;100.00
62111;BME280;48102;47.526;19.072;2023-05-03T13:30:53;100837.50;;;20.99;100.00
62111;BME280;48102;47.526;19.072;2023-05-03T13:33:56;100843.22;;;21.37;100.00
62111;BME280;48102;47.526;19.072;2023-05-03T13:37:00;100826.50;;;21.54;98.44
62111;BME280;48102;47.526;19.072;2023-05-03T13:40:03;100827.94;;;21.98;96.64
62111;BME280;48102;47.526;19.072;2023-05-03T13:43:07;100830.13;;;22.43;93.10
62111;BME280;48102;47.526;19.072;2023-05-03T13:46:10;100826.87;;;22.69;92.23
62111;BME280;48102;47.526;19.072;2023-05-03T13:49:14;100828.41;;;22.81;84.62
62111;BME280;48102;47.526;19.072;2023-05-03T13:52:17;100824.31;;;22.77;84.97
62111;BME280;48102;47.526;19.072;2023-05-03T13:55:20;100819.47;;;23.10;79.08
62111;BME280;48102;47.526;19.072;2023-05-03T13:58:23;100819.91;;;23.05;74.06
62111;BME280;48102;47.526;19.072;2023-05-03T14:01:27;100821.62;;;23.43;71.73
62111;BME280;48102;47.526;19.072;2023-05-03T14:04:31;100820.37;;;24.20;65.47
62111;BME280;48102;47.526;19.072;2023-05-03T14:07:34;100815.63;;;24.50;62.31
62111;BME280;48102;47.526;19.072;2023-05-03T14:10:38;100815.78;;;24.48;60.02
62111;BME280;48102;47.526;19.072;2023-05-03T14:13:42;100812.91;;;24.68;60.95
62111;BME280;48102;47.526;19.072;2023-05-03T14:16:59;100807.59;;;25.02;57.59
62111;BME280;48102;47.526;19.072;2023-05-03T14:20:02;100806.09;;;24.82;56.93
62111;BME280;48102;47.526;19.072;2023-05-03T14:23:10;100808.31;;;24.86;56.16
62111;BME280;48102;47.526;19.072;2023-05-03T14:26:13;100807.53;;;24.94;59.74
62111;BME280;48102;47.526;19.072;2023-05-03T14:29:16;100812.47;;;25.24;57.22
62111;BME280;48102;47.526;19.072;2023-05-03T14:32:21;100808.16;;;25.74;55.37
62111;BME280;48102;47.526;19.072;2023-05-03T14:35:25;100814.03;;;26.28;52.91
62111;BME280;48102;47.526;19.072;2023-05-03T14:38:28;100809.41;;;28.44;45.99
62111;BME280;48102;47.526;19.072;2023-05-03T14:41:31;100805.75;;;28.98;43.46
62111;BME280;48102;47.526;19.072;2023-05-03T14:44:35;100801.47;;;27.41;45.83
62111;BME280;48102;47.526;19.072;2023-05-03T14:47:40;100798.81;;;26.11;50.50
62111;BME280;48102;47.526;19.072;2023-05-03T14:50:52;100805.91;;;25.01;54.28
62111;BME280;48102;47.526;19.072;2023-05-03T14:53:56;100796.66;;;23.88;56.39
62111;BME280;48102;47.526;19.072;2023-05-03T14:56:59;100801.53;;;23.00;60.68
62111;BME280;48102;47.526;19.072;2023-05-03T15:00:03;100799.91;;;22.41;67.54
62111;BME280;48102;47.526;19.072;2023-05-03T15:03:10;100796.84;;;22.05;68.39
62111;BME280;48102;47.526;19.072;2023-05-03T15:06:27;100801.28;;;21.66;75.57
62111;BME280;48102;47.526;19.072;2023-05-03T15:09:32;100800.63;;;21.34;79.48
62111;BME280;48102;47.526;19.072;2023-05-03T15:12:37;100798.53;;;21.16;85.42
62111;BME280;48102;47.526;19.072;2023-05-03T15:15:41;100798.59;;;21.05;88.81
62111;BME280;48102;47.526;19.072;2023-05-03T15:18:47;100801.44;;;21.03;92.16
62111;BME280;48102;47.526;19.072;2023-05-03T15:21:50;100799.34;;;20.86;93.57
62111;BME280;48102;47.526;19.072;2023-05-03T15:24:53;100804.97;;;20.83;94.29
62111;BME280;48102;47.526;19.072;2023-05-03T15:27:56;100807.78;;;20.61;94.97
62111;BME280;48102;47.526;19.072;2023-05-03T15:31:00;100807.81;;;20.49;97.95
